Latest Weather Observations for Orbost

IDV60801

Issued at 9:31 pm EDT Monday 22 December 2014 (issued every 30 minutes, with the page automatically refreshed every 10 minutes)

About weather observations | Map of weather stations | Latest weather observations for VIC | Other Formats
Station Details ID: 084145 Name: ORBOST Lat: -37.69 Lon: 148.47 Height: 62.65 m
Data from the previous 72 hours. | See also: Recent months at Orbost
Date/Time
EDT
Temp
°C
App
Temp
°C
Dew
Point
Rel
Hum
%
Delta-T
°C
Wind Press
QNH
hPa
Press
MSL
hPa
Rain
since 9 am
mm
Dir
 
Spd
km/h
Gust
km/h
Spd
kts
Gust
kts
22/09:30pm 24.7 22.8 13.0 48 6.8 N 15 26 8 14 1010.4 1010.2 0.0
22/09:00pm 24.8 23.0 13.4 49 6.7 N 15 30 8 16 1010.2 1010.0 0.0
22/08:30pm 24.1 23.7 14.2 54 5.9 NE 9 17 5 9 1010.1 1009.9 0.0
22/08:00pm 22.9 22.4 16.0 65 4.2 NNE 13 17 7 9 1010.3 1010.1 0.0
22/07:30pm 22.7 21.6 15.3 63 4.4 NNW 15 32 8 17 1010.2 1010.0 0.0
22/07:00pm 27.2 23.5 12.8 41 8.4 N 24 43 13 23 1009.2 1009.0 0.0
22/06:30pm 28.3 25.4 13.0 39 9.0 NNE 20 43 11 23 1008.6 1008.4 0.0
22/06:00pm 29.4 26.5 12.3 34 10.0 NNE 19 33 10 18 1008.5 1008.3 0.0
22/05:30pm 30.3 32.3 18.7 50 7.5 ESE 6 11 3 6 1008.6 1008.4 0.0
22/05:00pm 30.1 32.0 18.5 49 7.5 E 6 7 3 4 1008.4 1008.2 0.0
22/04:30pm 29.2 31.3 18.9 53 6.7 ESE 6 9 3 5 1008.9 1008.7 0.0
22/04:00pm 29.4 30.7 18.5 52 7.0 SSE 9 17 5 9 1009.0 1008.8 0.0
22/03:30pm 29.3 30.4 18.1 51 7.2 SSE 9 17 5 9 1009.3 1009.1 0.0
22/03:00pm 29.4 29.8 17.2 47 7.7 SE 11 19 6 10 1009.6 1009.4 0.0
22/02:30pm 28.4 29.1 17.9 53 6.7 SSE 11 19 6 10 1010.2 1010.0 0.0
22/02:00pm 28.4 28.8 17.3 51 7.0 SSE 11 20 6 11 1010.7 1010.5 0.0
22/01:30pm 28.1 28.9 18.2 55 6.3 SSE 11 17 6 9 1011.0 1010.8 0.0
22/01:00pm 28.3 29.8 19.0 57 6.0 SE 9 17 5 9 1011.7 1011.5 0.0
22/12:30pm 28.0 29.5 19.0 58 5.8 SSE 9 19 5 10 1012.3 1012.1 0.0
22/12:00pm 27.8 29.4 19.1 59 5.6 SSE 9 17 5 9 1012.6 1012.4 0.0
22/11:30am 28.7 30.9 19.6 58 5.9 S 7 13 4 7 1012.5 1012.3 0.0
22/11:00am 27.9 30.0 19.4 60 5.5 S 7 11 4 6 1012.7 1012.5 0.0
22/10:30am 27.0 29.3 18.6 60 5.4 S 4 7 2 4 1013.0 1012.8 0.0
22/10:00am 25.9 27.9 17.8 61 5.1 S 4 6 2 3 1013.1 1012.9 0.0
22/09:30am 25.4 27.5 17.3 61 5.1 SSW 2 6 1 3 1013.3 1013.1 0.0
22/09:00am 23.8 25.2 15.3 59 5.1 SSW 2 4 1 2 1013.6 1013.4 0.0
22/08:30am 22.5 23.9 15.4 64 4.3 SW 2 4 1 2 1013.6 1013.4 0.0
22/08:00am 21.0 22.5 15.8 72 3.1 WSW 2 4 1 2 1013.3 1013.1 0.0
22/07:30am 19.9 21.6 15.3 75 2.7 CALM 0 0 0 0 1013.1 1012.9 0.0
22/07:00am 18.3 19.7 14.4 78 2.3 CALM 0 0 0 0 1013.0 1012.8 0.0
22/06:30am 17.9 18.8 14.0 78 2.2 E 2 4 1 2 1012.8 1012.6 0.0
22/06:00am 16.1 16.0 13.2 83 1.6 N 6 6 3 3 1012.7 1012.5 0.0
22/05:30am 15.8 16.8 13.3 85 1.4 CALM 0 4 0 2 1012.6 1012.4 0.0
22/05:00am 15.9 16.9 13.2 84 1.5 CALM 0 0 0 0 1012.6 1012.4 0.0
22/04:30am 16.1 17.2 13.4 84 1.5 CALM 0 4 0 2 1012.4 1012.2 0.0
22/04:00am 19.0 18.9 13.8 72 3.0 NNE 7 11 4 6 1012.0 1011.8 0.0
22/03:30am 18.3 18.7 13.6 74 2.7 N 4 6 2 3 1012.3 1012.1 0.0
22/03:00am 19.5 20.0 14.1 71 3.1 NE 4 6 2 3 1013.0 1012.8 0.0
22/02:30am 17.1 18.5 14.4 84 1.6 CALM 0 4 0 2 1013.3 1013.1 0.0
22/02:00am 17.2 18.3 14.5 84 1.6 E 2 4 1 2 1013.6 1013.4 0.0
22/01:30am 17.1 17.7 14.2 83 1.7 E 4 6 2 3 1013.9 1013.7 0.0
22/01:00am 17.2 18.1 13.9 81 1.9 E 2 6 1 3 1014.0 1013.9 0.0
22/12:30am 18.3 19.6 14.0 76 2.5 CALM 0 0 0 0 1013.8 1013.6 0.0
22/12:00am 18.9 20.3 14.4 75 2.6 CALM 0 0 0 0 1013.8 1013.6 0.0
 
Date/Time
EDT
Temp
°C
App
Temp
°C
Dew
Point
Rel
Hum
%
Delta-T
°C
Wind Press
QNH
hPa
Press
MSL
hPa
Rain
since 9 am
mm
Dir
 
Spd
km/h
Gust
km/h
Spd
kts
Gust
kts
21/11:30pm 18.9 20.5 14.8 77 2.4 CALM 0 0 0 0 1013.7 1013.5 0.0
21/11:00pm 20.0 20.7 12.3 61 4.3 CALM 0 0 0 0 1013.6 1013.4 0.0
21/10:30pm 21.4 21.4 12.3 56 5.1 NE 4 6 2 3 1013.7 1013.5 0.0
21/10:00pm 22.0 21.5 12.0 53 5.6 NE 6 7 3 4 1014.0 1013.9 0.0
21/09:30pm 21.8 21.4 12.4 55 5.3 ENE 6 9 3 5 1013.8 1013.6 0.0
21/09:00pm 21.7 21.7 13.6 60 4.7 NE 6 7 3 4 1013.8 1013.6 0.0
21/08:30pm 22.7 23.3 14.3 59 4.9 ENE 4 6 2 3 1013.6 1013.4 0.0
21/08:00pm 23.7 25.5 15.5 60 4.9 CALM 0 4 0 2 1013.6 1013.4 0.0
21/07:30pm 25.8 26.7 15.2 52 6.4 ENE 4 6 2 3 1013.6 1013.4 0.0
21/07:00pm 26.0 28.1 17.1 58 5.6 SE 2 6 1 3 1013.6 1013.4 0.0
21/06:30pm 26.0 26.9 15.1 51 6.6 E 4 6 2 3 1013.4 1013.2 0.0
21/06:00pm 26.3 27.5 16.8 56 5.9 S 6 9 3 5 1013.5 1013.3 0.0
21/05:30pm 26.6 26.9 14.4 47 7.3 S 6 11 3 6 1013.4 1013.2 0.0
21/05:00pm 26.4 27.0 14.2 47 7.3 ESE 4 7 2 4 1013.5 1013.3 0.0
21/04:30pm 25.9 26.7 15.9 54 6.1 S 6 11 3 6 1013.9 1013.7 0.0
21/04:00pm 25.6 26.7 16.5 57 5.6 SE 6 13 3 7 1013.9 1013.7 0.0
21/03:30pm 24.8 25.9 17.0 62 4.8 SSE 7 13 4 7 1014.2 1014.1 0.0
21/03:00pm 24.3 24.8 16.6 62 4.7 SSE 9 15 5 8 1014.5 1014.4 0.0
21/02:30pm 24.4 25.0 16.9 63 4.6 SSE 9 17 5 9 1014.5 1014.4 0.0
21/02:00pm 23.8 23.8 16.3 63 4.6 S 11 17 6 9 1014.7 1014.6 0.0
21/01:30pm 23.3 23.2 16.1 64 4.4 S 11 17 6 9 1014.8 1014.7 0.0
21/01:00pm 23.4 23.5 16.4 64 4.3 S 11 19 6 10 1015.0 1014.9 0.0
21/12:30pm 23.0 23.2 16.8 68 3.8 S 11 17 6 9 1015.1 1015.0 0.0
21/12:00pm 22.5 22.4 16.1 67 3.9 S 11 15 6 8 1015.4 1015.3 0.0
21/11:30am 22.8 23.6 16.4 67 3.9 SSE 7 13 4 7 1015.4 1015.3 0.0
21/11:00am 22.3 22.7 15.4 65 4.1 SSE 7 13 4 7 1015.7 1015.6 0.0
21/10:30am 21.8 22.3 14.9 65 4.1 SE 6 11 3 6 1015.8 1015.7 0.0
21/10:00am 20.8 21.0 14.2 66 3.8 ENE 6 11 3 6 1016.1 1016.0 0.0
21/09:30am 19.9 20.2 13.4 66 3.7 SE 4 6 2 3 1016.6 1016.5 0.0
21/09:00am 18.1 18.3 13.2 73 2.8 S 4 6 2 3 1016.9 1016.8 0.0
21/08:30am 16.9 17.5 13.2 79 2.1 SSW 2 4 1 2 1016.9 1016.8 0.0
21/08:00am 15.3 15.5 13.2 87 1.2 SSW 4 6 2 3 1016.6 1016.5 0.0
21/07:30am 14.1 14.9 12.7 91 0.8 CALM 0 0 0 0 1016.0 1015.9 0.0
21/07:00am 13.0 13.7 12.2 95 0.4 CALM 0 0 0 0 1015.7 1015.6 0.0
21/06:30am 12.1 12.7 11.8 98 0.2 CALM 0 0 0 0 1015.7 1015.6 0.0
21/06:00am 11.2 10.7 10.7 97 0.3 N 4 6 2 3 1015.7 1015.6 0.0
21/05:30am 10.6 10.7 10.1 97 0.3 CALM 0 0 0 0 1015.6 1015.5 0.0
21/05:00am 11.2 11.4 10.7 97 0.3 CALM 0 0 0 0 1015.7 1015.6 0.0
21/04:30am 11.3 11.6 10.8 97 0.3 CALM 0 0 0 0 1015.8 1015.7 0.0
21/04:00am 11.6 12.0 11.1 97 0.3 CALM 0 0 0 0 1016.0 1015.9 0.0
21/03:30am 11.4 11.7 10.8 96 0.3 CALM 0 0 0 0 1016.3 1016.2 0.0
21/03:00am 11.5 11.8 10.9 96 0.3 CALM 0 0 0 0 1016.6 1016.5 0.0
21/02:30am 11.9 12.3 11.1 95 0.4 CALM 0 0 0 0 1016.9 1016.8 0.0
21/02:00am 11.9 12.3 11.1 95 0.4 CALM 0 0 0 0 1017.1 1017.0 0.0
21/01:30am 12.4 12.9 11.6 95 0.4 CALM 0 0 0 0 1017.3 1017.2 0.0
21/01:00am 12.4 12.9 11.6 95 0.4 CALM 0 0 0 0 1017.5 1017.4 0.0
21/12:30am 12.4 12.9 11.5 94 0.5 CALM 0 0 0 0 1017.7 1017.6 0.0
21/12:00am 12.8 12.6 11.9 94 0.5 NNE 4 6 2 3 1017.9 1017.8 0.0
 
Date/Time
EDT
Temp
°C
App
Temp
°C
Dew
Point
Rel
Hum
%
Delta-T
°C
Wind Press
QNH
hPa
Press
MSL
hPa
Rain
since 9 am
mm
Dir
 
Spd
km/h
Gust
km/h
Spd
kts
Gust
kts
20/11:30pm 13.3 12.8 11.9 91 0.8 N 6 7 3 4 1018.1 1018.0 0.0
20/11:00pm 13.4 12.9 12.1 92 0.7 N 6 7 3 4 1018.2 1018.1 0.0
20/10:30pm 13.6 13.5 12.0 90 0.9 N 4 6 2 3 1018.3 1018.2 0.0
20/10:00pm 13.8 13.7 12.2 90 0.9 N 4 6 2 3 1018.5 1018.4 0.0
20/09:30pm 14.4 15.1 12.3 87 1.1 CALM 0 0 0 0 1018.4 1018.3 0.0
20/09:00pm 15.4 15.7 12.3 82 1.7 S 2 4 1 2 1018.0 1017.9 0.0
20/08:30pm 16.1 16.1 12.3 78 2.1 S 4 6 2 3 1017.9 1017.8 0.0
20/08:00pm 17.1 17.0 12.2 73 2.7 S 4 7 2 4 1017.8 1017.7 0.0
20/07:30pm 17.9 17.4 12.1 69 3.2 SSE 6 9 3 5 1017.5 1017.4 0.0
20/07:00pm 18.3 17.7 11.8 66 3.6 SSE 6 9 3 5 1017.2 1017.1 0.0
20/06:30pm 18.8 18.2 11.6 63 4.0 SSE 6 13 3 7 1017.0 1016.9 0.0
20/06:00pm 18.8 17.9 11.4 62 4.1 SSE 7 15 4 8 1016.9 1016.8 0.0
20/05:30pm 19.1 17.8 11.4 61 4.2 SSE 9 19 5 10 1016.8 1016.7 0.0
20/05:00pm 19.6 18.5 11.9 61 4.3 SSE 9 15 5 8 1016.7 1016.6 0.0
20/04:30pm 19.9 18.8 11.9 60 4.5 SSE 9 17 5 9 1016.9 1016.8 0.0
20/04:00pm 19.7 17.9 10.9 57 4.8 S 11 19 6 10 1017.2 1017.1 0.0
20/03:30pm 19.8 18.0 11.0 57 4.8 S 11 20 6 11 1017.3 1017.2 0.0
20/03:00pm 19.7 18.3 10.9 57 4.8 SSE 9 17 5 9 1017.5 1017.4 0.0
20/02:30pm 19.2 17.4 10.7 58 4.6 SSE 11 15 6 8 1017.6 1017.5 0.0
20/02:00pm 19.1 17.3 10.9 59 4.5 S 11 19 6 10 1017.7 1017.6 0.0
20/01:30pm 19.1 17.2 10.6 58 4.6 SSE 11 19 6 10 1017.7 1017.6 0.0
20/01:00pm 18.4 16.4 10.3 59 4.3 S 11 20 6 11 1018.0 1017.9 0.0
20/12:30pm 19.5 18.1 11.0 58 4.6 SW 9 20 5 11 1018.1 1018.0 0.0
20/12:00pm 18.7 16.7 10.0 57 4.6 SW 11 20 6 11 1018.2 1018.1 0.0
20/11:30am 18.1 16.2 9.2 56 4.7 SW 9 17 5 9 1018.5 1018.4 0.0
20/11:00am 18.2 16.2 8.7 54 4.9 WSW 9 17 5 9 1018.4 1018.3 0.0
20/10:30am 17.7 15.5 7.7 52 5.1 W 9 20 5 11 1018.3 1018.2 0.0
20/10:00am 17.2 14.7 8.4 56 4.5 W 11 17 6 9 1018.4 1018.3 0.0
20/09:30am 16.7 14.7 8.7 59 4.1 WNW 9 17 5 9 1018.5 1018.4 0.0
20/09:00am 16.1 13.6 8.3 60 4.0 W 11 17 6 9 1018.6 1018.5 0.0
20/08:30am 15.6 13.6 8.8 64 3.5 WNW 9 13 5 7 1018.5 1018.4 0.0
20/08:00am 14.6 12.5 8.3 66 3.2 NW 9 19 5 10 1018.4 1018.3 0.0
20/07:30am 13.8 12.1 8.4 70 2.7 NW 7 15 4 8 1018.2 1018.1 0.0
20/07:00am 12.6 10.7 8.9 78 1.9 NNW 9 13 5 7 1018.1 1018.0 0.0
20/06:30am 10.8 8.7 8.4 85 1.2 N 9 11 5 6 1017.9 1017.8 0.0
20/06:00am 9.7 7.9 7.8 88 0.9 NNW 7 9 4 5 1017.8 1017.7 0.0
20/05:30am 9.9 8.1 8.0 88 0.9 N 7 9 4 5 1017.6 1017.5 0.0
20/05:00am 9.8 8.0 8.1 89 0.8 NNW 7 9 4 5 1017.6 1017.5 0.0
20/04:30am 10.0 8.4 8.1 88 0.9 N 6 7 3 4 1017.5 1017.4 0.0
20/04:00am 10.1 8.4 8.2 88 0.9 NNW 7 9 4 5 1017.5 1017.4 0.0
20/03:30am 10.7 9.2 8.6 87 1.0 NW 6 7 3 4 1017.5 1017.4 0.0
20/03:00am 11.0 10.0 8.8 86 1.1 WNW 4 4 2 2 1017.7 1017.6 0.0
20/02:30am 11.8 10.3 9.0 83 1.4 NNW 7 11 4 6 1017.7 1017.6 0.0
20/02:00am 12.0 10.2 9.4 84 1.3 NNW 9 11 5 6 1017.8 1017.7 0.0
20/01:30am 11.7 10.1 8.9 83 1.4 NNW 7 11 4 6 1018.1 1018.0 0.0
20/01:00am 12.2 10.8 9.6 84 1.3 NNW 7 9 4 5 1018.3 1018.2 0.0
20/12:30am 12.2 10.8 9.6 84 1.3 N 7 9 4 5 1018.6 1018.5 0.0
20/12:00am 12.7 11.3 9.7 82 1.5 N 7 9 4 5 1018.8 1018.7 0.0
 
Date/Time
EDT
Temp
°C
App
Temp
°C
Dew
Point
Rel
Hum
%
Delta-T
°C
Wind Press
QNH
hPa
Press
MSL
hPa
Rain
since 9 am
mm
Dir
 
Spd
km/h
Gust
km/h
Spd
kts
Gust
kts
19/11:30pm 12.3 10.9 9.7 84 1.3 N 7 9 4 5 1019.0 1018.9 0.0
19/11:00pm 13.1 12.1 10.3 83 1.4 N 6 6 3 3 1019.2 1019.1 0.0
19/10:30pm 13.5 13.0 10.7 83 1.5 N 4 6 2 3 1019.2 1019.1 0.0
19/10:00pm 13.9 13.4 10.9 82 1.6 NW 4 4 2 2 1019.2 1019.1 0.0

Other Formats:

Comma delimited format used in spreadsheet applications
http://www.bom.gov.au/fwo/IDV60801/IDV60801.95918.axf

JavaScript Object Notation format (JSON) in row-major order
http://www.bom.gov.au/fwo/IDV60801/IDV60801.95918.json